Terminal Aerodrome Forecast
Issued by NWS

Home | Current Version | Previous Version | Text Only | Print | Product List | Glossary On
Versions: 1 2 3 4 5 6 7 8 9 10 11 12 13 14 15 16
000
FTUS44 KBMX 282340
TAFTOI
TAF
KTOI 282340Z 2900/2924 17008KT P6SM BKN150
     FM290600 16006KT 6SM BR OVC010
     FM290800 15005KT 4SM BR OVC006
     FM291400 16009KT P6SM BKN015
     FM291600 16012G21KT P6SM SCT050 SCT250=

USA.gov is the U.S. government's official web portal to all federal, state and local government web resources and services.